Time;durP1;ratioP1;P1;durP2;ratioP2;P2;SDS_P1;SDS_P2;PMS_P1;PMS_P2;Temp;Humidity;BMP_temperature;BMP_pressure;BME280_temperature;BME280_humidity;BME280_pressure;Samples;Min_cycle;Max_cycle;Signal;HPM_P1;HPM_P2
2022/04/06 00:08:34;;;;;;;13.27;8.43;;;6.20;99.90;;;;;;5089056;27;20564;-88
2022/04/06 00:11:22;;;;;;;11.70;7.23;;;7.20;99.90;;;;;;5090150;28;20185;-85
2022/04/06 00:14:09;;;;;;;13.77;8.90;;;7.00;99.90;;;;;;5089225;27;20183;-86
2022/04/06 00:20:23;;;;;;;13.20;8.40;;;6.80;99.90;;;;;;5089854;27;20186;-83
2022/04/06 00:23:14;;;;;;;12.60;7.43;;;6.70;99.90;;;;;;5068310;27;20221;-88
2022/04/06 00:26:14;;;;;;;10.03;6.70;;;6.50;99.90;;;;;;5067692;28;20212;-88
2022/04/06 00:28:53;;;;;;;11.50;7.70;;;6.50;99.90;;;;;;5067173;27;20201;-90
2022/04/06 00:31:55;;;;;;;11.70;7.13;;;6.40;99.90;;;;;;5069187;27;20209;-88
2022/04/06 00:40:43;;;;;;;11.40;8.13;;;6.30;99.90;;;;;;5031965;28;20188;-86
2022/04/06 00:47:08;;;;;;;9.97;6.87;;;6.20;99.90;;;;;;5050163;27;20185;-87
2022/04/06 00:59:52;;;;;;;11.30;7.33;;;6.00;1.00;;;;;;5046242;28;20303;-86
2022/04/06 01:05:40;;;;;;;11.00;7.40;;;6.00;99.90;;;;;;5098577;28;20209;-87
2022/04/06 01:08:41;;;;;;;10.10;7.10;;;6.00;1.00;;;;;;5099658;28;20199;-88
2022/04/06 01:14:26;;;;;;;9.13;6.27;;;6.00;1.00;;;;;;5095872;28;20180;-88
2022/04/06 01:24:28;;;;;;;8.30;5.93;;;6.00;1.00;;;;;;4998502;28;20191;-87
2022/04/06 01:43:01;;;;;;;16.07;10.20;;;6.00;1.00;;;;;;5017167;28;20204;-87
2022/04/06 01:58:36;;;;;;;11.00;6.43;;;6.10;1.00;;;;;;5036601;28;20225;-86
2022/04/06 02:14:29;;;;;;;11.27;7.23;;;6.00;1.00;;;;;;5148085;27;20186;-87
2022/04/06 02:17:40;;;;;;;7.40;5.67;;;6.00;1.00;;;;;;5158139;27;20194;-86
2022/04/06 02:20:35;;;;;;;8.33;5.90;;;6.00;1.00;;;;;;4996259;28;20259;-88
2022/04/06 02:29:51;;;;;;;10.70;6.73;;;6.00;1.00;;;;;;5002731;28;20179;-87
2022/04/06 02:32:52;;;;;;;8.97;5.77;;;6.00;1.00;;;;;;4974690;28;20184;-88
2022/04/06 02:39:17;;;;;;;8.00;5.63;;;6.00;1.00;;;;;;5070986;27;20219;-86
2022/04/06 02:42:27;;;;;;;8.23;5.57;;;6.00;1.00;;;;;;5060617;27;20168;-86
2022/04/06 02:45:44;;;;;;;9.90;5.57;;;5.90;1.00;;;;;;5073249;28;20199;-87
2022/04/06 02:48:11;;;;;;;9.00;5.63;;;6.00;1.00;;;;;;5050582;28;20189;-81
2022/04/06 02:50:38;;;;;;;9.33;5.87;;;6.00;1.00;;;;;;5050053;28;20189;-84
2022/04/06 02:53:24;;;;;;;8.30;6.00;;;5.90;1.00;;;;;;5065589;28;20192;-86
2022/04/06 02:55:56;;;;;;;8.67;5.70;;;5.90;1.00;;;;;;5074930;27;20188;-87
2022/04/06 03:02:08;;;;;;;8.57;5.93;;;5.90;1.00;;;;;;5074353;27;20210;-86
2022/04/06 03:30:54;;;;;;;10.47;6.40;;;5.80;1.00;;;;;;6373407;22;20221;-86
2022/04/06 03:33:57;;;;;;;10.90;6.80;;;5.80;1.00;;;;;;6373988;22;20157;-88
2022/04/06 03:37:02;;;;;;;9.33;6.20;;;5.80;1.00;;;;;;6310293;22;20194;-87
2022/04/06 03:42:46;;;;;;;14.27;9.30;;;5.80;1.00;;;;;;6310333;22;20222;-84
2022/04/06 03:55:41;;;;;;;9.53;5.83;;;5.80;1.00;;;;;;6199600;23;20160;-86
2022/04/06 03:59:01;;;;;;;9.03;6.23;;;5.70;99.90;;;;;;6340680;22;20196;-86
2022/04/06 04:02:10;;;;;;;12.03;7.00;;;5.70;99.90;;;;;;6280489;22;20165;-86
2022/04/06 04:14:51;;;;;;;11.83;8.30;;;5.70;99.90;;;;;;6372286;22;20210;-87
2022/04/06 04:17:24;;;;;;;13.90;8.53;;;5.70;99.90;;;;;;6366386;22;20192;-88
2022/04/06 04:20:04;;;;;;;13.47;8.53;;;5.70;99.90;;;;;;6359825;22;20175;-85
2022/04/06 04:23:03;;;;;;;17.87;9.93;;;5.70;99.90;;;;;;6364818;22;20187;-85
2022/04/06 04:25:35;;;;;;;13.97;9.47;;;5.60;99.90;;;;;;6366632;22;20162;-87
2022/04/06 04:28:27;;;;;;;15.10;10.37;;;5.60;99.90;;;;;;6366100;22;20183;-86
2022/04/06 04:31:22;;;;;;;16.23;10.57;;;5.60;99.90;;;;;;6366366;22;20207;-83
2022/04/06 04:34:05;;;;;;;13.40;9.00;;;5.60;99.90;;;;;;6363398;22;20181;-86
2022/04/06 04:42:36;;;;;;;12.70;8.63;;;5.70;99.90;;;;;;6357033;22;20228;-87
2022/04/06 04:45:30;;;;;;;13.43;7.47;;;5.60;1.00;;;;;;6365964;22;20157;-86
2022/04/06 04:48:00;;;;;;;10.20;7.37;;;5.60;1.00;;;;;;6364222;22;20192;-86
2022/04/06 04:50:38;;;;;;;9.80;6.67;;;5.60;1.00;;;;;;6365687;22;20149;-88
2022/04/06 04:53:27;;;;;;;11.23;7.40;;;5.60;1.00;;;;;;6364550;22;20202;-85
2022/04/06 04:56:17;;;;;;;11.43;7.20;;;5.70;1.00;;;;;;6365825;22;20153;-87
2022/04/06 04:58:55;;;;;;;9.80;6.53;;;5.70;1.00;;;;;;6365157;22;20184;-88
2022/04/06 05:01:39;;;;;;;10.70;7.10;;;5.70;1.00;;;;;;6365762;22;20193;-86
2022/04/06 05:04:12;;;;;;;12.07;8.53;;;5.80;1.00;;;;;;6365837;22;20166;-87
2022/04/06 05:06:53;;;;;;;16.90;13.73;;;5.80;1.00;;;;;;6365546;22;20189;-86
2022/04/06 05:12:09;;;;;;;11.63;7.40;;;5.80;5.60;;;;;;6359779;22;20190;-82
2022/04/06 05:14:39;;;;;;;15.50;7.07;;;5.80;75.00;;;;;;6360578;22;20227;-85
2022/04/06 05:17:19;;;;;;;19.20;9.87;;;5.90;99.90;;;;;;6363866;22;20155;-89
2022/04/06 05:19:52;;;;;;;13.47;8.03;;;5.90;99.90;;;;;;6352246;22;20193;-90
2022/04/06 05:22:27;;;;;;;10.53;7.53;;;6.00;99.90;;;;;;6358056;22;20162;-86
2022/04/06 05:24:56;;;;;;;14.07;8.80;;;6.00;99.90;;;;;;6360697;22;20535;-91
2022/04/06 05:27:30;;;;;;;15.17;9.17;;;6.00;99.90;;;;;;6362075;22;20181;-86
2022/04/06 05:30:04;;;;;;;21.07;13.13;;;6.10;99.90;;;;;;6361315;22;20145;-87
2022/04/06 05:32:31;;;;;;;16.57;9.80;;;6.10;1.00;;;;;;6361531;22;20165;-87
2022/04/06 05:35:03;;;;;;;16.67;10.87;;;6.10;99.90;;;;;;6360705;22;20172;-87
2022/04/06 05:37:55;;;;;;;21.80;13.60;;;6.20;1.00;;;;;;6364401;22;20166;-90
2022/04/06 05:40:27;;;;;;;15.10;9.20;;;6.20;1.00;;;;;;6363214;22;20197;-88
2022/04/06 05:43:06;;;;;;;17.40;10.20;;;6.30;1.00;;;;;;6364709;22;20227;-88
2022/04/06 05:45:36;;;;;;;14.20;9.17;;;6.30;1.00;;;;;;6364212;22;20184;-89
2022/04/06 05:48:28;;;;;;;14.03;9.60;;;6.40;1.00;;;;;;6359381;22;20174;-88
2022/04/06 05:51:11;;;;;;;12.93;8.60;;;6.40;1.00;;;;;;6361505;22;20156;-88
2022/04/06 05:53:51;;;;;;;15.87;11.57;;;6.40;1.00;;;;;;6362783;22;20146;-89
2022/04/06 05:56:31;;;;;;;17.57;11.03;;;6.50;1.00;;;;;;6358844;22;20159;-86
2022/04/06 05:59:11;;;;;;;16.47;11.23;;;6.50;1.00;;;;;;6361618;22;20154;-88
2022/04/06 06:01:47;;;;;;;22.03;12.97;;;6.60;14.30;;;;;;6362823;22;20138;-88
2022/04/06 06:04:33;;;;;;;58.40;35.27;;;6.70;99.90;;;;;;6362058;22;20146;-87
2022/04/06 06:07:17;;;;;;;23.37;15.27;;;6.80;1.00;;;;;;6363188;22;20196;-92
2022/04/06 06:09:54;;;;;;;25.83;16.53;;;6.90;99.90;;;;;;6359360;22;20165;-88
2022/04/06 06:12:30;;;;;;;25.53;15.67;;;6.90;1.00;;;;;;6360406;22;20163;-86
2022/04/06 06:15:15;;;;;;;27.97;16.43;;;7.00;1.00;;;;;;6358491;22;20165;-89
2022/04/06 06:18:02;;;;;;;30.67;18.80;;;7.10;17.60;;;;;;6353014;22;20177;-86
2022/04/06 06:21:01;;;;;;;28.17;16.73;;;7.20;99.90;;;;;;6360724;22;20162;-88
2022/04/06 06:23:38;;;;;;;29.53;17.57;;;7.30;99.90;;;;;;6362827;22;20184;-88
2022/04/06 06:26:14;;;;;;;38.10;23.50;;;7.40;1.00;;;;;;6358510;22;20151;-88
2022/04/06 06:28:42;;;;;;;31.03;19.83;;;7.50;1.00;;;;;;6358419;22;20219;-88
2022/04/06 06:31:19;;;;;;;29.10;18.57;;;7.60;1.00;;;;;;6361725;22;20180;-88
2022/04/06 06:33:50;;;;;;;29.53;18.17;;;7.70;1.00;;;;;;6354242;22;20169;-89
2022/04/06 06:36:17;;;;;;;28.70;17.80;;;7.70;1.00;;;;;;6359370;22;20177;-86
2022/04/06 06:41:46;;;;;;;27.47;16.93;;;8.00;99.90;;;;;;6358092;22;20165;-87
2022/04/06 06:44:17;;;;;;;24.47;16.90;;;8.10;99.90;;;;;;6362023;22;20164;-87
2022/04/06 06:46:52;;;;;;;23.97;15.03;;;8.20;93.20;;;;;;6358745;22;20224;-88
2022/04/06 06:49:19;;;;;;;22.13;16.03;;;8.30;80.40;;;;;;6352314;22;20178;-85
2022/04/06 06:52:03;;;;;;;29.20;17.20;;;8.40;99.90;;;;;;6342665;22;20217;-84
2022/04/06 06:54:30;;;;;;;27.63;17.97;;;8.40;68.70;;;;;;6345553;22;20157;-85
2022/04/06 06:56:57;;;;;;;43.17;26.77;;;8.50;1.00;;;;;;6344702;22;20170;-87
2022/04/06 06:59:41;;;;;;;93.40;40.63;;;8.60;1.00;;;;;;6351115;22;20163;-85
2022/04/06 07:02:16;;;;;;;45.67;24.00;;;8.70;1.00;;;;;;6347404;22;20150;-88
2022/04/06 07:04:46;;;;;;;29.47;16.67;;;8.80;1.00;;;;;;6346754;22;20211;-85
2022/04/06 07:07:13;;;;;;;31.13;18.67;;;8.90;1.00;;;;;;6343190;22;20224;-87
2022/04/06 07:09:40;;;;;;;33.73;19.33;;;9.00;1.00;;;;;;6344441;22;20163;-85
2022/04/06 07:12:07;;;;;;;44.47;21.87;;;9.10;1.00;;;;;;6345050;22;20171;-86
2022/04/06 07:14:51;;;;;;;35.03;18.57;;;9.20;1.00;;;;;;6350048;22;20162;-91
2022/04/06 07:17:29;;;;;;;16.13;10.57;;;9.30;1.00;;;;;;6358151;22;20143;-90
2022/04/06 07:20:14;;;;;;;20.00;12.67;;;9.30;99.90;;;;;;6325577;22;20159;-89
2022/04/06 07:22:41;;;;;;;25.13;13.97;;;9.30;99.90;;;;;;6321814;22;20175;-87
2022/04/06 07:25:09;;;;;;;20.67;13.63;;;9.40;99.90;;;;;;6307421;22;20167;-87
2022/04/06 07:27:37;;;;;;;15.97;11.07;;;9.50;99.90;;;;;;6309438;22;20243;-87
2022/04/06 07:30:08;;;;;;;16.77;11.23;;;9.60;19.90;;;;;;6305995;22;20198;-87
2022/04/06 07:32:36;;;;;;;17.60;11.77;;;9.70;1.00;;;;;;6306242;22;20472;-86
2022/04/06 07:35:04;;;;;;;17.53;12.13;;;9.80;1.00;;;;;;6307903;22;20234;-86
2022/04/06 07:37:36;;;;;;;15.80;10.70;;;9.80;1.00;;;;;;6307744;22;20250;-88
2022/04/06 07:40:04;;;;;;;18.33;12.00;;;9.90;1.00;;;;;;6309148;22;20155;-87
2022/04/06 07:42:31;;;;;;;25.37;15.27;;;10.00;99.90;;;;;;6307542;22;20231;-88
2022/04/06 07:44:58;;;;;;;20.97;12.33;;;10.10;99.90;;;;;;6308403;22;20169;-86
2022/04/06 07:47:31;;;;;;;14.60;9.20;;;10.20;99.90;;;;;;6308108;22;20193;-86
2022/04/06 07:49:58;;;;;;;12.60;8.73;;;10.30;99.90;;;;;;6306012;22;20155;-86
2022/04/06 07:56:03;;;;;;;11.53;8.20;;;10.50;1.00;;;;;;6311125;22;20183;-88
2022/04/06 07:58:30;;;;;;;13.53;9.43;;;10.50;99.90;;;;;;6312415;22;20170;-86
2022/04/06 08:01:24;;;;;;;19.50;13.33;;;10.50;99.90;;;;;;6326259;22;20174;-88
2022/04/06 08:03:52;;;;;;;16.40;10.70;;;10.60;1.00;;;;;;6311748;22;20172;-87
2022/04/06 08:06:19;;;;;;;13.97;9.13;;;10.70;1.00;;;;;;6311778;22;20577;-85
2022/04/06 08:08:48;;;;;;;13.47;9.00;;;10.70;1.00;;;;;;6307839;22;20545;-85
2022/04/06 08:11:15;;;;;;;13.40;9.30;;;10.70;1.00;;;;;;6310909;22;20174;-86
2022/04/06 08:13:42;;;;;;;13.47;9.10;;;10.80;1.00;;;;;;6309670;22;20171;-85
2022/04/06 08:16:16;;;;;;;13.27;9.20;;;10.90;1.00;;;;;;6309532;22;20175;-85
2022/04/06 08:18:44;;;;;;;11.60;9.47;;;11.10;1.00;;;;;;6324209;22;20272;-86
2022/04/06 08:24:20;;;;;;;13.87;9.63;;;11.60;99.90;;;;;;6338899;22;20170;-86
2022/04/06 08:26:55;;;;;;;14.27;9.97;;;12.00;99.90;;;;;;6343039;22;20206;-83
2022/04/06 08:29:22;;;;;;;13.60;10.33;;;12.10;1.00;;;;;;6341936;22;20147;-84
2022/04/06 08:31:51;;;;;;;11.83;9.23;;;12.20;99.90;;;;;;6344880;22;20207;-87
2022/04/06 08:34:18;;;;;;;14.00;10.77;;;12.10;1.00;;;;;;6340275;22;20533;-84
2022/04/06 08:36:58;;;;;;;17.20;10.60;;;12.00;1.00;;;;;;6355282;22;20165;-85
2022/04/06 08:39:25;;;;;;;12.83;9.80;;;12.10;1.00;;;;;;6350160;22;20590;-81
2022/04/06 08:41:58;;;;;;;11.73;8.47;;;12.10;1.00;;;;;;6344778;22;20190;-80
2022/04/06 08:44:25;;;;;;;12.07;8.77;;;12.10;99.90;;;;;;6342245;22;20157;-82
2022/04/06 08:46:53;;;;;;;16.07;9.70;;;12.00;1.00;;;;;;6343294;22;20689;-79
2022/04/06 08:49:29;;;;;;;12.03;9.20;;;12.00;1.00;;;;;;6341300;22;20175;-82
2022/04/06 08:52:12;;;;;;;11.87;8.83;;;12.00;1.00;;;;;;6342167;22;20181;-81
2022/04/06 08:54:43;;;;;;;13.43;9.13;;;12.10;1.00;;;;;;6344919;22;20171;-83
2022/04/06 08:57:11;;;;;;;13.20;9.20;;;12.20;1.00;;;;;;6344941;22;20167;-80
2022/04/06 08:59:38;;;;;;;12.50;9.57;;;12.10;99.90;;;;;;6347518;22;20168;-81
2022/04/06 09:02:05;;;;;;;13.57;9.93;;;12.00;99.90;;;;;;6339377;22;20638;-83
2022/04/06 09:04:35;;;;;;;15.43;11.17;;;11.90;99.90;;;;;;6339245;22;20167;-84
2022/04/06 09:07:10;;;;;;;17.10;11.50;;;11.80;99.90;;;;;;6338166;22;20593;-84
2022/04/06 09:09:38;;;;;;;14.83;11.07;;;11.80;99.90;;;;;;6339884;22;20190;-83
2022/04/06 09:12:09;;;;;;;26.50;21.03;;;11.70;99.90;;;;;;6341345;22;20210;-82
2022/04/06 09:14:39;;;;;;;17.13;12.57;;;11.60;99.90;;;;;;6340198;22;20186;-85
2022/04/06 09:17:07;;;;;;;18.23;13.57;;;11.50;99.90;;;;;;6339435;22;20176;-82
2022/04/06 09:19:37;;;;;;;19.03;13.50;;;11.40;99.90;;;;;;6341653;22;20229;-84
2022/04/06 09:22:08;;;;;;;17.63;13.20;;;11.40;1.00;;;;;;6340534;22;20653;-84
2022/04/06 09:24:35;;;;;;;21.77;15.07;;;11.50;1.00;;;;;;6341009;22;20152;-84
2022/04/06 09:27:04;;;;;;;19.90;14.63;;;11.60;1.00;;;;;;6338626;22;20163;-83
2022/04/06 09:29:34;;;;;;;18.83;13.53;;;11.70;1.00;;;;;;6338417;22;20169;-83
2022/04/06 09:32:07;;;;;;;19.53;13.57;;;11.90;1.00;;;;;;6340045;22;20517;-83
2022/04/06 09:34:34;;;;;;;18.87;13.70;;;11.90;1.00;;;;;;6343547;22;20149;-82
2022/04/06 09:37:29;;;;;;;20.67;14.07;;;12.00;1.00;;;;;;6344979;22;20198;-84
2022/04/06 09:39:58;;;;;;;19.87;14.70;;;12.10;1.00;;;;;;6346401;22;20486;-83
2022/04/06 09:42:34;;;;;;;22.50;14.17;;;12.10;99.90;;;;;;6345359;22;20187;-85
2022/04/06 09:47:58;;;;;;;20.40;14.67;;;12.20;99.90;;;;;;6342230;22;20701;-84
2022/04/06 09:50:27;;;;;;;17.93;13.17;;;12.10;99.90;;;;;;6339208;22;20184;-84
2022/04/06 09:52:57;;;;;;;20.87;14.47;;;12.10;99.90;;;;;;6339369;22;20213;-83
2022/04/06 09:55:25;;;;;;;21.53;14.70;;;12.10;99.90;;;;;;6344664;22;20155;-82
2022/04/06 09:57:53;;;;;;;21.00;14.57;;;12.00;99.90;;;;;;6342703;22;20167;-82
2022/04/06 10:00:22;;;;;;;19.90;13.93;;;12.00;99.90;;;;;;6342711;22;20171;-84
2022/04/06 10:02:59;;;;;;;25.20;13.93;;;12.10;99.90;;;;;;6339531;22;20176;-85
2022/04/06 10:05:28;;;;;;;20.60;14.40;;;12.10;34.70;;;;;;6339046;22;20561;-84
2022/04/06 10:08:00;;;;;;;62.57;31.77;;;12.00;1.00;;;;;;6344774;22;20187;-84
2022/04/06 10:10:27;;;;;;;22.70;14.87;;;11.90;1.00;;;;;;6348062;22;20499;-84
2022/04/06 10:12:55;;;;;;;45.60;25.70;;;11.80;1.00;;;;;;6345402;22;20168;-82
2022/04/06 10:15:22;;;;;;;27.20;16.57;;;11.70;87.20;;;;;;6344415;22;20175;-83
2022/04/06 10:17:49;;;;;;;26.47;15.33;;;11.80;99.90;;;;;;6344138;22;20632;-83
2022/04/06 10:20:25;;;;;;;20.80;14.43;;;12.00;99.90;;;;;;6343352;22;20156;-82
2022/04/06 10:23:11;;;;;;;23.97;16.10;;;12.20;99.90;;;;;;6348840;22;20140;-83
2022/04/06 10:25:49;;;;;;;20.23;13.63;;;12.40;88.10;;;;;;6343874;22;20601;-83
2022/04/06 10:28:17;;;;;;;19.13;14.37;;;12.50;1.00;;;;;;6342553;22;20167;-85
2022/04/06 10:31:14;;;;;;;21.00;13.10;;;12.50;1.00;;;;;;6352697;22;20166;-84
2022/04/06 10:33:41;;;;;;;18.77;13.67;;;12.50;1.00;;;;;;6342808;22;20157;-83
2022/04/06 10:36:20;;;;;;;19.33;12.43;;;12.50;1.00;;;;;;6340867;22;20168;-84
2022/04/06 10:39:22;;;;;;;18.87;12.60;;;12.60;1.00;;;;;;6346522;22;20549;-85
2022/04/06 10:42:15;;;;;;;17.53;11.80;;;12.60;1.00;;;;;;6343356;22;20182;-84
2022/04/06 10:44:43;;;;;;;19.33;12.40;;;12.60;1.00;;;;;;6353183;22;20198;-88
2022/04/06 10:47:11;;;;;;;17.37;12.13;;;12.60;1.00;;;;;;6345926;22;20193;-84
2022/04/06 10:49:39;;;;;;;19.70;12.40;;;12.70;1.00;;;;;;6347003;22;20173;-83
2022/04/06 10:52:22;;;;;;;17.77;11.17;;;12.70;1.00;;;;;;6342233;22;20505;-82
2022/04/06 10:54:52;;;;;;;17.70;11.33;;;12.70;1.00;;;;;;6342784;22;20160;-84
2022/04/06 10:57:20;;;;;;;15.90;9.87;;;12.70;1.00;;;;;;6346084;22;20156;-82
2022/04/06 11:00:16;;;;;;;14.87;10.40;;;12.70;1.00;;;;;;6344359;22;20222;-82
2022/04/06 11:02:51;;;;;;;16.30;11.50;;;12.70;1.00;;;;;;6344639;22;20232;-84
2022/04/06 11:05:46;;;;;;;17.93;10.67;;;12.60;1.00;;;;;;6344968;22;20170;-83
2022/04/06 11:11:43;;;;;;;18.07;10.47;;;12.50;1.00;;;;;;6346215;22;20154;-86
2022/04/06 11:14:10;;;;;;;16.87;9.87;;;12.40;1.00;;;;;;6345222;22;20179;-83
2022/04/06 11:16:45;;;;;;;14.97;10.67;;;12.30;1.00;;;;;;6339061;22;20212;-82
2022/04/06 11:19:13;;;;;;;17.63;11.23;;;12.30;1.00;;;;;;6341189;22;20562;-83
2022/04/06 11:21:47;;;;;;;20.53;10.50;;;12.20;1.00;;;;;;6338034;22;20178;-84
2022/04/06 11:24:18;;;;;;;16.30;9.67;;;12.20;1.00;;;;;;6337390;22;20186;-83
2022/04/06 11:26:46;;;;;;;15.83;11.23;;;12.20;1.00;;;;;;6339976;22;20152;-85
2022/04/06 11:29:13;;;;;;;15.60;9.67;;;12.10;1.00;;;;;;6349134;22;20199;-85
2022/04/06 11:31:57;;;;;;;15.30;9.83;;;12.10;1.00;;;;;;6343086;22;20221;-84
2022/04/06 11:34:35;;;;;;;15.10;10.10;;;12.00;1.00;;;;;;6343971;22;20177;-83
2022/04/06 11:37:07;;;;;;;9.63;7.60;;;12.10;1.00;;;;;;6348257;22;20159;-83
2022/04/06 11:39:34;;;;;;;12.23;8.00;;;12.20;1.00;;;;;;6347347;22;20152;-82
2022/04/06 11:42:07;;;;;;;10.80;7.83;;;12.30;1.00;;;;;;6345762;22;20175;-87
2022/04/06 11:44:35;;;;;;;9.60;7.13;;;12.50;1.00;;;;;;6344121;22;20254;-85
2022/04/06 11:47:02;;;;;;;18.37;10.23;;;12.70;1.00;;;;;;6342486;22;20174;-83
2022/04/06 11:49:30;;;;;;;13.27;7.80;;;12.80;1.00;;;;;;6344237;22;20188;-83
2022/04/06 11:51:58;;;;;;;14.30;9.27;;;12.90;1.00;;;;;;6339388;22;20237;-83
2022/04/06 11:54:28;;;;;;;14.43;9.03;;;12.90;99.90;;;;;;6340769;22;20174;-83
2022/04/06 11:56:56;;;;;;;17.30;10.27;;;12.90;99.90;;;;;;6339296;22;20252;-83
2022/04/06 11:59:31;;;;;;;15.07;9.77;;;12.80;99.90;;;;;;6353495;22;20201;-85
2022/04/06 12:01:59;;;;;;;17.43;9.90;;;12.70;99.90;;;;;;6347726;22;20156;-84
2022/04/06 12:04:26;;;;;;;12.60;7.30;;;12.60;99.90;;;;;;6340966;22;20172;-84
2022/04/06 12:06:54;;;;;;;14.40;8.67;;;12.40;99.90;;;;;;6339853;22;20217;-84
2022/04/06 12:09:22;;;;;;;13.93;7.70;;;12.40;99.90;;;;;;6341541;22;20563;-83
2022/04/06 12:11:53;;;;;;;11.53;6.90;;;12.50;99.90;;;;;;6345259;22;20205;-84
2022/04/06 12:14:22;;;;;;;10.20;7.60;;;12.70;99.90;;;;;;6344818;22;20171;-82
2022/04/06 12:16:51;;;;;;;10.97;7.40;;;12.80;99.90;;;;;;6352789;22;20199;-83
2022/04/06 12:19:19;;;;;;;12.80;7.20;;;13.00;99.90;;;;;;6340230;22;20253;-82
2022/04/06 12:21:48;;;;;;;12.90;7.57;;;13.10;99.90;;;;;;6337636;22;20177;-82
2022/04/06 12:24:17;;;;;;;15.07;7.67;;;13.30;99.90;;;;;;6342405;22;20227;-83
2022/04/06 12:26:50;;;;;;;11.43;7.03;;;13.40;99.90;;;;;;6339898;22;20220;-82
2022/04/06 12:29:18;;;;;;;12.43;7.27;;;13.50;99.90;;;;;;6343189;22;20196;-83
2022/04/06 12:31:46;;;;;;;13.57;7.77;;;13.50;99.90;;;;;;6349937;22;20169;-84
2022/04/06 12:34:30;;;;;;;12.70;7.60;;;13.50;99.90;;;;;;6340307;22;20212;-83
2022/04/06 12:36:57;;;;;;;10.97;7.67;;;13.50;99.90;;;;;;6339035;22;20172;-82
2022/04/06 12:39:25;;;;;;;10.70;7.10;;;13.40;99.90;;;;;;6342618;22;20173;-84
2022/04/06 12:41:56;;;;;;;12.03;7.37;;;13.30;99.90;;;;;;6342603;22;20539;-81
2022/04/06 12:44:23;;;;;;;11.30;7.10;;;13.20;99.90;;;;;;6341634;22;20666;-84
2022/04/06 12:46:51;;;;;;;12.13;7.17;;;13.10;99.90;;;;;;6340578;22;20241;-86
2022/04/06 12:49:42;;;;;;;12.07;8.37;;;12.90;99.90;;;;;;6341621;22;20193;-81
2022/04/06 12:52:12;;;;;;;11.13;7.57;;;12.90;99.90;;;;;;6340728;22;20241;-82
2022/04/06 12:54:40;;;;;;;77.77;36.43;;;12.80;99.90;;;;;;6350896;22;20168;-85
2022/04/06 12:57:11;;;;;;;48.80;23.43;;;12.70;99.90;;;;;;6343187;22;20165;-84
2022/04/06 12:59:44;;;;;;;34.03;20.70;;;12.70;99.90;;;;;;6346173;22;20533;-83
2022/04/06 13:02:22;;;;;;;29.30;15.50;;;12.60;99.90;;;;;;6352422;22;20169;-84
2022/04/06 13:04:51;;;;;;;14.83;8.60;;;12.50;99.90;;;;;;6346474;22;20193;-84
2022/04/06 13:07:19;;;;;;;18.10;11.07;;;12.50;99.90;;;;;;6347928;22;20195;-84
2022/04/06 13:09:51;;;;;;;16.07;9.50;;;12.40;99.90;;;;;;6350559;22;20191;-83
2022/04/06 13:12:19;;;;;;;17.33;9.07;;;12.40;99.90;;;;;;6341967;22;20195;-83
2022/04/06 13:14:46;;;;;;;14.13;6.90;;;12.40;99.90;;;;;;6338838;22;20537;-82
2022/04/06 13:17:13;;;;;;;17.90;7.83;;;12.30;99.90;;;;;;6339745;22;20172;-82
2022/04/06 13:19:40;;;;;;;14.07;7.10;;;12.40;99.90;;;;;;6339438;22;20203;-83
2022/04/06 13:22:11;;;;;;;22.30;12.60;;;12.50;99.90;;;;;;6340254;22;20163;-84
2022/04/06 13:24:38;;;;;;;55.43;33.13;;;12.50;99.90;;;;;;6339262;22;20169;-84
2022/04/06 13:27:06;;;;;;;9.00;6.23;;;12.50;99.90;;;;;;6343252;22;20164;-82
2022/04/06 13:29:33;;;;;;;12.23;7.17;;;12.50;99.90;;;;;;6338129;22;20564;-82
2022/04/06 13:32:00;;;;;;;9.43;5.90;;;12.60;99.90;;;;;;6343765;22;20171;-82
2022/04/06 13:34:28;;;;;;;10.53;6.30;;;12.60;99.90;;;;;;6340194;22;20619;-83
2022/04/06 13:36:55;;;;;;;11.87;6.63;;;12.80;99.90;;;;;;6340141;22;20659;-81
2022/04/06 13:39:24;;;;;;;15.77;10.20;;;12.80;99.90;;;;;;6349800;22;20199;-88
2022/04/06 13:41:55;;;;;;;20.07;12.63;;;13.00;99.90;;;;;;6349673;22;20170;-83
2022/04/06 13:44:24;;;;;;;12.43;8.57;;;13.00;99.90;;;;;;6343200;22;20190;-83
2022/04/06 13:46:52;;;;;;;10.10;6.20;;;13.20;99.90;;;;;;6345994;22;20166;-81
2022/04/06 13:49:20;;;;;;;11.80;6.20;;;13.20;99.90;;;;;;6343898;22;20701;-82
2022/04/06 13:51:47;;;;;;;14.70;7.37;;;13.20;95.50;;;;;;6346560;22;20173;-82
2022/04/06 13:54:16;;;;;;;13.07;7.50;;;13.10;93.70;;;;;;6341018;22;20219;-83
2022/04/06 13:56:44;;;;;;;9.37;6.23;;;13.00;99.90;;;;;;6345894;22;20196;-83
2022/04/06 13:59:12;;;;;;;11.87;7.47;;;13.10;99.90;;;;;;6345056;22;20677;-83
2022/04/06 14:01:39;;;;;;;13.17;6.83;;;13.10;99.90;;;;;;6341268;22;20166;-81
2022/04/06 14:04:07;;;;;;;11.73;7.07;;;13.10;99.90;;;;;;6343652;22;20220;-84
2022/04/06 14:06:34;;;;;;;22.33;12.10;;;13.10;95.20;;;;;;6339360;22;20176;-83
2022/04/06 14:09:01;;;;;;;13.63;6.93;;;13.10;93.70;;;;;;6339530;22;20285;-81
2022/04/06 14:11:29;;;;;;;11.73;6.30;;;13.00;90.20;;;;;;6342878;22;20543;-82
2022/04/06 14:13:58;;;;;;;13.63;7.17;;;13.00;90.70;;;;;;6339838;22;20188;-83
2022/04/06 14:16:25;;;;;;;9.37;6.43;;;12.90;99.90;;;;;;6341394;22;20221;-82
2022/04/06 14:18:55;;;;;;;9.50;5.77;;;12.80;99.90;;;;;;6343312;22;20728;-82
2022/04/06 14:21:23;;;;;;;11.40;6.93;;;12.70;99.90;;;;;;6340853;22;20161;-83
2022/04/06 14:23:50;;;;;;;11.20;6.60;;;12.60;99.90;;;;;;6339254;22;20204;-83
2022/04/06 14:26:17;;;;;;;11.33;8.60;;;12.50;99.90;;;;;;6341680;22;20156;-83
2022/04/06 14:28:45;;;;;;;13.83;8.17;;;12.40;99.90;;;;;;6338176;22;20654;-82
2022/04/06 14:31:13;;;;;;;14.80;8.43;;;12.40;99.90;;;;;;6339982;22;20544;-86
2022/04/06 14:33:40;;;;;;;14.97;8.63;;;12.40;99.90;;;;;;6346315;22;20173;-84
2022/04/06 14:36:11;;;;;;;14.93;8.87;;;12.40;99.90;;;;;;6342814;22;20536;-87
2022/04/06 14:38:39;;;;;;;10.00;7.50;;;12.60;99.90;;;;;;6339361;22;20149;-85
2022/04/06 14:41:08;;;;;;;12.17;6.47;;;12.70;99.90;;;;;;6344396;22;20535;-86
2022/04/06 14:43:41;;;;;;;9.20;6.03;;;12.70;99.90;;;;;;6342088;22;20166;-89
2022/04/06 14:46:09;;;;;;;9.60;6.87;;;12.80;99.90;;;;;;6338097;22;20199;-84
2022/04/06 14:48:38;;;;;;;11.70;6.40;;;12.90;99.90;;;;;;6346774;22;20247;-88
2022/04/06 14:51:09;;;;;;;11.43;7.30;;;13.00;99.90;;;;;;6344659;22;20176;-90
2022/04/06 14:53:36;;;;;;;12.83;7.27;;;13.00;99.90;;;;;;6344352;22;20183;-85
2022/04/06 14:56:04;;;;;;;12.03;6.50;;;13.10;99.90;;;;;;6346078;22;20229;-91
2022/04/06 14:58:31;;;;;;;10.93;6.37;;;13.20;99.90;;;;;;6342672;22;20165;-87
2022/04/06 15:00:58;;;;;;;9.30;6.87;;;13.20;94.50;;;;;;6339672;22;20286;-86
2022/04/06 15:03:25;;;;;;;11.90;5.80;;;13.20;88.20;;;;;;6340192;22;20166;-86
2022/04/06 15:05:54;;;;;;;13.83;7.73;;;13.10;67.20;;;;;;6341547;22;20171;-85
2022/04/06 15:08:21;;;;;;;14.73;8.37;;;13.10;69.30;;;;;;6342064;22;20209;-86
2022/04/06 15:10:48;;;;;;;16.50;7.17;;;13.10;86.00;;;;;;6347727;22;20168;-86
2022/04/06 15:13:16;;;;;;;13.60;7.97;;;13.10;71.50;;;;;;6337306;22;20201;-87
2022/04/06 15:15:43;;;;;;;9.40;5.93;;;13.00;83.30;;;;;;6338120;22;20483;-87
2022/04/06 15:18:10;;;;;;;10.23;6.10;;;13.00;87.30;;;;;;6342340;22;20272;-88
2022/04/06 15:20:38;;;;;;;12.53;6.53;;;12.80;90.70;;;;;;6338607;22;20168;-88
2022/04/06 15:23:07;;;;;;;14.30;6.90;;;12.80;99.90;;;;;;6341439;22;20169;-86
2022/04/06 15:25:38;;;;;;;10.27;6.53;;;12.90;99.90;;;;;;6338879;22;20537;-87
2022/04/06 15:28:05;;;;;;;11.13;5.90;;;13.00;99.90;;;;;;6339489;22;20245;-87
2022/04/06 15:30:33;;;;;;;10.97;5.60;;;13.00;97.70;;;;;;6337047;22;20190;-88
2022/04/06 15:33:00;;;;;;;10.13;6.40;;;13.10;63.00;;;;;;6337670;22;20166;-87
2022/04/06 15:38:24;;;;;;;12.80;6.00;;;13.00;73.60;;;;;;6342654;22;20185;-86
2022/04/06 15:40:52;;;;;;;8.97;6.00;;;13.00;56.20;;;;;;6343146;22;20225;-88
2022/04/06 15:43:19;;;;;;;10.30;5.30;;;13.00;35.50;;;;;;6344651;22;20170;-89
2022/04/06 15:45:46;;;;;;;10.23;5.30;;;12.90;36.70;;;;;;6342614;22;20173;-87
2022/04/06 15:48:13;;;;;;;11.67;7.00;;;12.80;35.50;;;;;;6341235;22;20173;-86
2022/04/06 15:50:40;;;;;;;10.30;5.63;;;12.70;53.80;;;;;;6341378;22;20565;-88
2022/04/06 15:53:07;;;;;;;7.50;5.50;;;12.70;78.40;;;;;;6347006;22;20152;-85
2022/04/06 15:55:36;;;;;;;10.23;5.20;;;12.70;81.10;;;;;;6346171;22;20170;-86
2022/04/06 15:58:07;;;;;;;7.97;5.43;;;12.60;61.10;;;;;;6345582;22;20167;-85
2022/04/06 16:00:34;;;;;;;8.03;5.20;;;12.60;80.90;;;;;;6338229;22;20153;-86
2022/04/06 16:03:04;;;;;;;49.57;37.43;;;12.60;64.70;;;;;;6342840;22;20192;-88
2022/04/06 16:05:31;;;;;;;9.03;6.10;;;12.50;81.70;;;;;;6342229;22;20151;-88
2022/04/06 16:07:58;;;;;;;12.40;6.17;;;12.50;81.70;;;;;;6338837;22;20170;-85
2022/04/06 16:10:26;;;;;;;11.40;6.70;;;12.40;79.90;;;;;;6342584;22;20232;-86
2022/04/06 16:12:54;;;;;;;9.83;5.60;;;12.40;84.70;;;;;;6337236;22;20164;-87